Terminal Aerodrome Forecast
Issued by NWS

Home | Current Version | Previous Version | Text Only | Print | Product List | Glossary On
Versions: 1 2 3 4 5 6 7 8 9 10 11 12 13 14 15
000
FTAK31 PAJN 280500
TAFAWG
TAF
PAWG 280521Z 2806/2906 VRB02KT P6SM FEW025 SCT035 SCT060
     FM281000 VRB02KT 6SM BCFG SCT002 BKN070
     FM281700 10005KT P6SM SCT060 BKN150
     FM290000 10005KT P6SM VCSH BKN040 OVC080
      AMD LTD TO CLD VIS AND WIND 2806/2815=

USA.gov is the U.S. government's official web portal to all federal, state and local government web resources and services.